createdAt,value
2022-10-16T00:00:01.040Z,15.70
2022-10-16T00:02:49.217Z,15.70
2022-10-16T00:05:45.587Z,15.70
2022-10-16T00:08:33.917Z,15.60
2022-10-16T00:11:34.484Z,15.60
2022-10-16T00:14:22.614Z,15.60
2022-10-16T00:17:10.770Z,15.50
2022-10-16T00:19:59.218Z,15.50
2022-10-16T00:22:47.314Z,15.50
2022-10-16T00:25:35.431Z,15.50
2022-10-16T00:28:24.011Z,15.50
2022-10-16T00:31:13.870Z,15.40
2022-10-16T00:34:02.324Z,15.40
2022-10-16T00:36:50.500Z,15.40
2022-10-16T00:39:39.088Z,15.40
2022-10-16T00:42:27.714Z,15.40
2022-10-16T00:45:16.454Z,15.50
2022-10-16T00:50:53.602Z,15.50
2022-10-16T00:53:42.097Z,15.50
2022-10-16T00:56:30.299Z,15.50
2022-10-16T00:59:28.496Z,15.50
2022-10-16T01:02:17.796Z,15.50
2022-10-16T01:05:07.025Z,15.50
2022-10-16T01:08:43.440Z,15.50
2022-10-16T01:11:43.210Z,15.40
2022-10-16T01:14:55.240Z,15.40
2022-10-16T01:18:06.185Z,15.50
2022-10-16T01:21:17.944Z,15.40
2022-10-16T01:24:33.705Z,15.60
2022-10-16T01:27:31.479Z,15.30
2022-10-16T01:30:28.822Z,15.30
2022-10-16T01:33:25.985Z,15.30
2022-10-16T01:36:26.006Z,15.30
2022-10-16T01:39:15.605Z,15.30
2022-10-16T01:42:20.076Z,15.20
2022-10-16T01:45:12.378Z,15.20
2022-10-16T01:48:06.225Z,15.20
2022-10-16T01:51:10.528Z,15.20
2022-10-16T01:54:02.232Z,15.20
2022-10-16T01:56:51.070Z,15.30
2022-10-16T01:59:46.382Z,15.30
2022-10-16T02:02:35.587Z,15.20
2022-10-16T02:05:34.962Z,15.20
2022-10-16T02:08:26.082Z,15.30
2022-10-16T02:11:14.231Z,15.20
2022-10-16T02:14:07.602Z,15.20
2022-10-16T02:16:55.756Z,15.20
2022-10-16T02:19:46.614Z,15.20
2022-10-16T02:22:39.270Z,15.20
2022-10-16T02:25:36.192Z,15.20
2022-10-16T02:28:31.825Z,15.20
2022-10-16T02:31:28.797Z,15.20
2022-10-16T02:34:17.802Z,15.20
2022-10-16T02:37:07.850Z,15.10
2022-10-16T02:39:58.971Z,15.10
2022-10-16T02:42:55.570Z,15.10
2022-10-16T02:45:43.815Z,15.10
2022-10-16T02:48:32.002Z,15.00
2022-10-16T02:51:20.218Z,15.10
2022-10-16T02:54:08.554Z,15.10
2022-10-16T02:56:56.626Z,15.10
2022-10-16T02:59:45.242Z,15.10
2022-10-16T03:02:33.401Z,15.10
2022-10-16T03:08:10.521Z,15.10
2022-10-16T03:10:58.755Z,15.00
2022-10-16T03:13:49.542Z,15.00
2022-10-16T03:16:37.643Z,15.00
2022-10-16T03:19:25.818Z,15.00
2022-10-16T03:22:13.966Z,15.00
2022-10-16T03:25:02.389Z,15.00
2022-10-16T03:27:50.567Z,14.90
2022-10-16T03:30:40.723Z,15.00
2022-10-16T03:33:28.963Z,15.00
2022-10-16T03:36:17.162Z,15.00
2022-10-16T03:39:05.350Z,14.90
2022-10-16T03:41:53.431Z,14.90
2022-10-16T03:44:41.622Z,14.80
2022-10-16T03:47:29.911Z,14.80
2022-10-16T03:50:18.219Z,14.80
2022-10-16T03:53:07.062Z,14.80
2022-10-16T03:55:55.270Z,14.80
2022-10-16T03:58:43.403Z,14.90
2022-10-16T04:01:31.560Z,14.90
2022-10-16T04:04:19.801Z,14.90
2022-10-16T04:07:08.104Z,14.90
2022-10-16T04:09:56.383Z,14.80
2022-10-16T04:12:44.476Z,14.80
2022-10-16T04:15:32.608Z,14.90
2022-10-16T04:18:20.750Z,14.90
2022-10-16T04:21:09.294Z,14.80
2022-10-16T04:23:57.424Z,14.80
2022-10-16T04:26:45.567Z,14.80
2022-10-16T04:29:33.738Z,14.70
2022-10-16T04:32:22.179Z,14.70
2022-10-16T04:35:10.445Z,14.70
2022-10-16T04:37:59.777Z,14.80
2022-10-16T04:40:47.915Z,14.80
2022-10-16T04:43:36.084Z,14.80
2022-10-16T04:46:24.214Z,14.80
2022-10-16T04:49:12.421Z,14.70
2022-10-16T04:52:00.615Z,14.70
2022-10-16T04:54:48.729Z,14.70
2022-10-16T04:57:36.911Z,14.70
2022-10-16T05:00:25.079Z,14.70
2022-10-16T05:03:14.683Z,14.70
2022-10-16T05:06:02.951Z,14.60
2022-10-16T05:08:51.118Z,14.60
2022-10-16T05:11:39.328Z,14.60
2022-10-16T05:14:27.600Z,14.50
2022-10-16T05:17:15.872Z,14.50
2022-10-16T05:20:04.715Z,14.60
2022-10-16T05:22:52.916Z,14.60
2022-10-16T05:25:41.112Z,14.50
2022-10-16T05:28:31.418Z,14.60
2022-10-16T05:31:20.817Z,14.60
2022-10-16T05:34:09.043Z,14.60
2022-10-16T05:36:57.763Z,14.50
2022-10-16T05:39:46.961Z,14.60
2022-10-16T05:42:35.076Z,14.60
2022-10-16T05:45:23.285Z,14.60
2022-10-16T05:48:11.401Z,14.60
2022-10-16T05:51:04.610Z,14.60
2022-10-16T05:53:53.885Z,14.60
2022-10-16T05:56:42.100Z,14.60
2022-10-16T05:59:30.232Z,14.60
2022-10-16T06:02:18.406Z,14.50
2022-10-16T06:05:07.178Z,14.60
2022-10-16T06:07:55.280Z,14.60
2022-10-16T06:10:44.835Z,14.50
2022-10-16T06:13:33.161Z,14.50
2022-10-16T06:16:21.625Z,14.50
2022-10-16T06:19:10.400Z,14.50
2022-10-16T06:21:59.534Z,14.50
2022-10-16T06:24:48.694Z,14.60
2022-10-16T06:27:36.835Z,14.60
2022-10-16T06:30:24.966Z,14.60
2022-10-16T06:33:13.514Z,14.60
2022-10-16T06:36:11.794Z,14.60
2022-10-16T06:38:59.947Z,14.70
2022-10-16T06:41:48.134Z,14.70
2022-10-16T06:44:38.935Z,14.70
2022-10-16T06:47:27.146Z,14.70
2022-10-16T06:50:15.446Z,14.70
2022-10-16T06:53:03.534Z,14.80
2022-10-16T06:55:51.951Z,14.80
2022-10-16T06:58:41.139Z,14.80
2022-10-16T07:01:30.270Z,14.80
2022-10-16T07:04:18.543Z,14.90
2022-10-16T07:07:08.694Z,14.90
2022-10-16T07:09:57.759Z,14.90
2022-10-16T07:12:46.295Z,15.00
2022-10-16T07:15:35.095Z,15.00
2022-10-16T07:18:27.334Z,15.10
2022-10-16T07:21:20.344Z,15.20
2022-10-16T07:24:17.371Z,15.20
2022-10-16T07:27:05.490Z,15.20
2022-10-16T07:29:53.647Z,15.20
2022-10-16T07:32:41.768Z,15.30
2022-10-16T07:35:29.905Z,15.30
2022-10-16T07:38:18.771Z,15.40
2022-10-16T07:41:10.089Z,15.40
2022-10-16T07:44:01.254Z,15.40
2022-10-16T07:46:49.643Z,15.40
2022-10-16T07:49:37.722Z,15.50
2022-10-16T07:52:25.905Z,15.60
2022-10-16T07:55:14.385Z,15.60
2022-10-16T07:58:02.625Z,15.70
2022-10-16T08:00:50.731Z,15.70
2022-10-16T08:03:39.004Z,15.70
2022-10-16T08:06:28.203Z,15.70
2022-10-16T08:09:16.469Z,15.70
2022-10-16T08:12:05.377Z,15.70
2022-10-16T08:14:53.610Z,15.50
2022-10-16T08:17:41.801Z,15.70
2022-10-16T08:20:31.717Z,15.80
2022-10-16T08:23:20.027Z,15.80
2022-10-16T08:26:09.910Z,15.90
2022-10-16T08:28:58.188Z,15.90
2022-10-16T08:31:46.408Z,16.00
2022-10-16T08:34:35.211Z,16.00
2022-10-16T08:37:23.383Z,16.10
2022-10-16T08:40:33.489Z,16.10
2022-10-16T08:43:24.257Z,16.00
2022-10-16T08:46:28.436Z,16.00
2022-10-16T08:49:17.226Z,16.00
2022-10-16T08:52:05.870Z,16.20
2022-10-16T08:54:56.677Z,16.30
2022-10-16T08:57:45.207Z,16.50
2022-10-16T09:00:34.423Z,16.80
2022-10-16T09:03:49.318Z,16.90
2022-10-16T09:07:10.971Z,17.10
2022-10-16T09:10:39.612Z,17.20
2022-10-16T09:13:51.762Z,17.40
2022-10-16T09:16:55.051Z,17.40
2022-10-16T09:20:26.334Z,17.30
2022-10-16T09:23:19.329Z,17.40
2022-10-16T09:26:13.137Z,17.70
2022-10-16T09:29:01.436Z,17.80
2022-10-16T09:31:50.100Z,17.90
2022-10-16T09:34:45.357Z,18.80
2022-10-16T09:37:33.621Z,17.90
2022-10-16T09:40:35.753Z,17.80
2022-10-16T09:43:23.797Z,17.90
2022-10-16T09:46:34.701Z,17.90
2022-10-16T09:49:26.589Z,17.90
2022-10-16T09:52:16.540Z,18.10
2022-10-16T09:55:17.498Z,18.20
2022-10-16T09:58:14.743Z,18.20
2022-10-16T10:01:02.896Z,18.30
2022-10-16T10:03:58.623Z,18.30
2022-10-16T10:06:54.163Z,18.20
2022-10-16T10:09:46.965Z,18.20
2022-10-16T10:12:37.563Z,18.30
2022-10-16T10:15:27.990Z,18.40
2022-10-16T10:18:21.072Z,18.40
2022-10-16T10:21:16.751Z,18.50
2022-10-16T10:24:06.151Z,18.60
2022-10-16T10:27:17.975Z,18.70
2022-10-16T10:30:14.867Z,18.80
2022-10-16T10:34:00.139Z,18.90
2022-10-16T10:37:19.556Z,18.90
2022-10-16T10:40:46.160Z,19.30
2022-10-16T10:43:49.136Z,19.30
2022-10-16T10:46:52.441Z,19.50
2022-10-16T10:50:12.231Z,19.60
2022-10-16T10:53:43.846Z,19.70
2022-10-16T10:56:47.376Z,19.80
2022-10-16T10:59:50.034Z,19.90
2022-10-16T11:02:59.827Z,20.20
2022-10-16T11:05:55.908Z,20.90
2022-10-16T11:09:13.919Z,21.10
2022-10-16T11:12:27.369Z,21.20
2022-10-16T11:15:33.245Z,21.40
2022-10-16T11:18:57.078Z,21.40
2022-10-16T11:21:55.818Z,21.80
2022-10-16T11:25:15.238Z,22.20
2022-10-16T11:28:31.590Z,21.90
2022-10-16T11:31:22.755Z,22.00
2022-10-16T11:34:44.286Z,22.40
2022-10-16T11:37:39.321Z,22.10
2022-10-16T11:40:34.734Z,22.20
2022-10-16T11:43:53.048Z,22.70
2022-10-16T11:46:59.089Z,23.20
2022-10-16T11:49:58.861Z,22.50
2022-10-16T11:53:21.112Z,22.30
2022-10-16T12:02:35.114Z,22.00
2022-10-16T12:05:35.635Z,22.10
2022-10-16T12:11:27.705Z,22.80
2022-10-16T12:17:22.292Z,21.70
2022-10-16T12:20:13.445Z,21.80
2022-10-16T12:23:07.441Z,22.00
2022-10-16T12:25:58.944Z,21.70
2022-10-16T12:31:57.439Z,21.90
2022-10-16T12:37:37.182Z,22.30
2022-10-16T12:40:33.480Z,22.30
2022-10-16T12:49:14.416Z,21.70
2022-10-16T12:54:52.147Z,21.40
2022-10-16T12:58:38.234Z,21.40
2022-10-16T13:01:53.465Z,21.10
2022-10-16T13:05:04.664Z,21.00
2022-10-16T13:08:14.397Z,21.10
2022-10-16T13:11:56.758Z,21.10
2022-10-16T13:15:03.370Z,21.00
2022-10-16T13:21:19.037Z,21.10
2022-10-16T13:24:41.268Z,21.20
2022-10-16T13:28:02.909Z,21.20
2022-10-16T13:30:58.131Z,21.20
2022-10-16T13:33:53.765Z,21.40
2022-10-16T13:36:51.769Z,21.10
2022-10-16T13:42:29.630Z,20.80
2022-10-16T13:45:24.390Z,20.70
2022-10-16T13:51:15.225Z,20.60
2022-10-16T14:08:26.405Z,20.70
2022-10-16T14:16:52.897Z,20.20
2022-10-16T14:22:42.470Z,20.20
2022-10-16T14:25:33.768Z,20.10
2022-10-16T14:28:25.043Z,19.90
2022-10-16T14:31:34.379Z,19.60
2022-10-16T14:34:34.697Z,19.80
2022-10-16T14:43:23.994Z,19.90
2022-10-16T14:49:21.345Z,19.90
2022-10-16T14:52:15.786Z,19.90
2022-10-16T15:20:35.075Z,20.20
2022-10-16T15:46:06.682Z,20.20
2022-10-16T15:48:59.353Z,20.10
2022-10-16T16:00:21.837Z,20.30
2022-10-16T16:08:47.399Z,20.30
2022-10-16T16:14:29.052Z,20.10
2022-10-16T16:17:17.275Z,19.90
2022-10-16T16:20:06.552Z,20.80
2022-10-16T16:51:16.235Z,18.40
2022-10-16T16:56:53.431Z,18.20
2022-10-16T17:02:29.974Z,18.10
2022-10-16T17:05:19.435Z,18.00
2022-10-16T17:08:09.587Z,18.00
2022-10-16T17:10:58.898Z,17.80
2022-10-16T17:13:49.942Z,17.70
2022-10-16T17:16:44.698Z,17.30
2022-10-16T17:19:32.919Z,17.20
2022-10-16T17:39:15.484Z,16.50
2022-10-16T17:47:42.568Z,16.20
2022-10-16T17:56:13.884Z,15.90
2022-10-16T17:59:03.353Z,16.00
2022-10-16T18:16:05.515Z,15.80
2022-10-16T18:18:57.173Z,15.80
2022-10-16T18:30:12.226Z,15.50
2022-10-16T18:38:51.957Z,15.40
2022-10-16T18:42:00.201Z,15.50
2022-10-16T19:13:07.595Z,15.00
2022-10-16T19:19:15.302Z,14.70
2022-10-16T19:30:56.034Z,14.70
2022-10-16T19:33:44.318Z,14.60
2022-10-16T19:36:36.098Z,14.70
2022-10-16T19:39:25.291Z,14.80
2022-10-16T19:42:13.502Z,14.80
2022-10-16T19:45:01.843Z,14.80
2022-10-16T19:47:50.164Z,14.70
2022-10-16T19:53:33.798Z,14.60
2022-10-16T19:59:13.632Z,14.30
2022-10-16T20:02:01.973Z,14.40
2022-10-16T20:07:38.655Z,14.30
2022-10-16T20:10:26.922Z,14.40
2022-10-16T20:13:15.164Z,14.40
2022-10-16T20:16:06.504Z,14.20
2022-10-16T20:18:55.443Z,14.10
2022-10-16T20:21:43.586Z,14.20
2022-10-16T20:24:31.834Z,14.10
2022-10-16T20:27:19.953Z,14.00
2022-10-16T20:30:09.082Z,14.00
2022-10-16T20:35:48.975Z,14.10
2022-10-16T20:49:53.449Z,13.60
2022-10-16T21:01:16.988Z,12.20
2022-10-16T21:04:08.238Z,14.80
2022-10-16T21:18:10.548Z,13.30
2022-10-16T21:26:36.526Z,13.10
2022-10-16T21:29:24.834Z,13.10
2022-10-16T21:32:13.026Z,13.00
2022-10-16T21:35:01.551Z,13.00
2022-10-16T21:37:50.367Z,13.10
2022-10-16T21:40:38.415Z,13.20
2022-10-16T21:43:26.564Z,13.20
2022-10-16T21:46:19.014Z,13.30
2022-10-16T21:49:14.420Z,13.30
2022-10-16T21:52:02.518Z,13.30
2022-10-16T21:54:50.634Z,13.40
2022-10-16T21:57:39.353Z,13.30
2022-10-16T22:00:27.467Z,13.30
2022-10-16T22:03:15.659Z,13.30
2022-10-16T22:06:07.292Z,13.30
2022-10-16T22:09:02.075Z,13.50
2022-10-16T22:14:41.017Z,13.30
2022-10-16T22:17:30.030Z,13.30
2022-10-16T22:20:18.398Z,13.30
2022-10-16T22:23:06.556Z,13.30
2022-10-16T22:26:04.292Z,13.10
2022-10-16T22:28:52.670Z,13.10
2022-10-16T22:31:40.896Z,13.00
2022-10-16T22:40:06.983Z,13.30
2022-10-16T22:42:55.149Z,13.40
2022-10-16T22:56:57.090Z,13.10
2022-10-16T23:02:35.199Z,13.10
2022-10-16T23:05:23.310Z,11.10
2022-10-16T23:08:14.358Z,13.00
2022-10-16T23:11:10.057Z,13.00
2022-10-16T23:33:40.683Z,13.10
